createdAt,value
2022-12-04T00:01:15.114Z,30.88
2022-12-04T00:02:47.880Z,34.25
2022-12-04T00:04:20.644Z,29.33
2022-12-04T00:06:03.875Z,32.47
2022-12-04T00:07:36.928Z,32.53
2022-12-04T00:09:11.252Z,30.48
2022-12-04T00:10:44.408Z,30.77
2022-12-04T00:12:17.141Z,32.70
2022-12-04T00:13:50.429Z,30.45
2022-12-04T00:15:25.868Z,29.38
2022-12-04T00:16:59.179Z,28.85
2022-12-04T00:18:30.942Z,31.52
2022-12-04T00:20:04.507Z,31.65
2022-12-04T00:21:37.272Z,27.85
2022-12-04T00:23:09.971Z,28.35
2022-12-04T00:24:44.043Z,31.33
2022-12-04T00:26:18.659Z,31.70
2022-12-04T00:27:51.379Z,32.97
2022-12-04T00:29:24.148Z,27.73
2022-12-04T00:30:57.134Z,30.00
2022-12-04T00:32:30.699Z,29.63
2022-12-04T00:34:07.967Z,31.70
2022-12-04T00:35:40.914Z,32.30
2022-12-04T00:37:13.694Z,33.95
2022-12-04T00:38:46.489Z,26.65
2022-12-04T00:40:20.515Z,26.20
2022-12-04T00:41:53.246Z,25.85
2022-12-04T00:43:25.050Z,26.58
2022-12-04T00:44:57.763Z,23.25
2022-12-04T00:46:30.770Z,25.13
2022-12-04T00:48:03.485Z,24.48
2022-12-04T00:49:36.319Z,24.02
2022-12-04T00:51:10.591Z,22.70
2022-12-04T00:52:43.343Z,26.40
2022-12-04T00:54:16.081Z,27.38
2022-12-04T00:55:50.158Z,24.83
2022-12-04T00:57:22.877Z,23.90
2022-12-04T00:58:58.462Z,24.67
2022-12-04T01:00:31.475Z,22.52
2022-12-04T01:02:04.209Z,22.08
2022-12-04T01:03:37.694Z,25.55
2022-12-04T01:05:10.435Z,25.63
2022-12-04T01:06:43.288Z,22.83
2022-12-04T01:08:15.124Z,25.38
2022-12-04T01:09:47.896Z,25.52
2022-12-04T01:11:23.799Z,24.48
2022-12-04T01:12:56.530Z,26.00
2022-12-04T01:14:29.287Z,24.23
2022-12-04T01:16:02.128Z,23.67
2022-12-04T01:17:34.864Z,23.85
2022-12-04T01:19:10.521Z,22.98
2022-12-04T01:20:49.152Z,23.50
2022-12-04T01:22:21.917Z,21.13
2022-12-04T01:23:54.808Z,26.40
2022-12-04T01:25:26.575Z,24.00
2022-12-04T01:27:00.682Z,25.90
2022-12-04T01:28:32.475Z,26.50
2022-12-04T01:30:06.424Z,26.88
2022-12-04T01:31:39.183Z,25.35
2022-12-04T01:33:11.979Z,24.83
2022-12-04T01:34:43.736Z,23.67
2022-12-04T01:36:18.425Z,23.15
2022-12-04T01:37:51.145Z,22.75
2022-12-04T01:39:23.938Z,21.42
2022-12-04T01:40:57.036Z,24.50
2022-12-04T01:42:31.102Z,23.90
2022-12-04T01:44:08.338Z,22.02
2022-12-04T01:45:43.556Z,21.42
2022-12-04T01:47:16.352Z,22.85
2022-12-04T01:48:54.280Z,23.48
2022-12-04T01:50:26.081Z,22.88
2022-12-04T01:52:03.213Z,24.80
2022-12-04T01:53:37.970Z,19.00
2022-12-04T01:55:10.835Z,21.13
2022-12-04T01:56:47.422Z,18.83
2022-12-04T01:58:27.682Z,20.05
2022-12-04T02:00:02.592Z,19.52
2022-12-04T02:01:41.368Z,19.60
2022-12-04T02:03:15.673Z,20.40
2022-12-04T02:04:49.234Z,19.67
2022-12-04T02:06:21.040Z,19.98
2022-12-04T02:07:57.939Z,21.65
2022-12-04T02:09:31.493Z,22.20
2022-12-04T02:11:12.203Z,20.27
2022-12-04T02:12:50.344Z,20.38
2022-12-04T02:14:31.112Z,21.60
2022-12-04T02:16:15.276Z,19.25
2022-12-04T02:17:54.092Z,20.33
2022-12-04T02:19:47.220Z,20.58
2022-12-04T02:21:27.089Z,19.55
2022-12-04T02:23:29.435Z,21.40
2022-12-04T02:25:09.434Z,20.75
2022-12-04T02:26:49.623Z,21.08
2022-12-04T02:28:25.846Z,21.50
2022-12-04T02:30:03.660Z,19.83
2022-12-04T02:31:41.455Z,21.63
2022-12-04T02:33:20.398Z,18.98
2022-12-04T02:34:59.078Z,20.90
2022-12-04T02:36:37.384Z,19.55
2022-12-04T02:38:17.353Z,17.92
2022-12-04T02:39:55.413Z,17.70
2022-12-04T02:41:36.795Z,20.05
2022-12-04T02:43:15.018Z,19.35
2022-12-04T02:44:55.805Z,18.42
2022-12-04T02:46:33.555Z,19.60
2022-12-04T02:48:08.796Z,18.33
2022-12-04T02:49:46.295Z,18.42
2022-12-04T02:51:21.175Z,19.75
2022-12-04T02:52:56.692Z,20.83
2022-12-04T02:54:35.075Z,21.77
2022-12-04T02:56:11.862Z,19.58
2022-12-04T02:57:50.001Z,20.63
2022-12-04T02:59:27.623Z,22.00
2022-12-04T03:01:17.995Z,21.27
2022-12-04T03:02:55.573Z,20.50
2022-12-04T03:04:30.653Z,22.20
2022-12-04T03:06:07.007Z,19.60
2022-12-04T03:07:44.058Z,18.98
2022-12-04T03:09:20.867Z,20.08
2022-12-04T03:10:56.244Z,22.58
2022-12-04T03:12:35.494Z,20.27
2022-12-04T03:14:13.438Z,24.20
2022-12-04T03:15:48.296Z,21.23
2022-12-04T03:17:28.067Z,21.17
2022-12-04T03:19:06.563Z,20.67
2022-12-04T03:20:40.575Z,19.65
2022-12-04T03:22:17.992Z,20.42
2022-12-04T03:23:57.246Z,22.33
2022-12-04T03:25:36.041Z,22.25
2022-12-04T03:27:13.396Z,24.70
2022-12-04T03:28:55.064Z,26.10
2022-12-04T03:30:35.313Z,29.52
2022-12-04T03:32:14.051Z,23.50
2022-12-04T03:33:48.255Z,26.40
2022-12-04T03:35:24.948Z,23.20
2022-12-04T03:37:04.376Z,23.40
2022-12-04T03:38:42.330Z,25.23
2022-12-04T03:40:22.877Z,27.13
2022-12-04T03:42:00.374Z,24.23
2022-12-04T03:43:37.945Z,25.55
2022-12-04T03:45:16.739Z,24.05
2022-12-04T03:46:55.801Z,25.15
2022-12-04T03:48:34.032Z,24.15
2022-12-04T03:50:11.113Z,22.20
2022-12-04T03:51:49.645Z,24.67
2022-12-04T03:53:30.431Z,24.33
2022-12-04T03:55:07.374Z,25.33
2022-12-04T03:56:44.230Z,28.55
2022-12-04T03:58:21.482Z,26.25
2022-12-04T04:00:07.797Z,26.83
2022-12-04T04:01:45.963Z,28.17
2022-12-04T04:03:23.126Z,27.65
2022-12-04T04:04:58.815Z,27.20
2022-12-04T04:06:37.945Z,25.70
2022-12-04T04:08:27.258Z,26.73
2022-12-04T04:10:06.047Z,25.48
2022-12-04T04:11:43.585Z,26.05
2022-12-04T04:13:39.372Z,27.60
2022-12-04T04:15:32.373Z,23.25
2022-12-04T04:17:27.569Z,25.13
2022-12-04T04:19:19.499Z,22.50
2022-12-04T04:21:15.216Z,22.10
2022-12-04T04:23:09.867Z,24.45
2022-12-04T04:24:46.128Z,23.35
2022-12-04T04:26:19.371Z,24.92
2022-12-04T04:27:53.598Z,24.73
2022-12-04T04:29:27.147Z,26.77
2022-12-04T04:31:11.697Z,26.20
2022-12-04T04:32:49.944Z,26.02
2022-12-04T04:34:27.862Z,24.95
2022-12-04T04:36:07.291Z,24.42
2022-12-04T04:37:50.456Z,26.35
2022-12-04T04:39:32.743Z,23.33
2022-12-04T04:41:11.258Z,24.85
2022-12-04T04:42:50.529Z,26.33
2022-12-04T04:44:29.160Z,25.33
2022-12-04T04:46:07.702Z,28.05
2022-12-04T04:47:47.475Z,28.85
2022-12-04T04:49:24.266Z,25.50
2022-12-04T04:50:57.565Z,26.48
2022-12-04T04:52:31.191Z,25.42
2022-12-04T04:54:07.854Z,26.80
2022-12-04T04:55:43.082Z,27.02
2022-12-04T04:57:27.569Z,27.17
2022-12-04T04:59:00.299Z,26.60
2022-12-04T05:00:33.054Z,27.17
2022-12-04T05:02:06.059Z,27.77
2022-12-04T05:03:39.202Z,29.90
2022-12-04T05:05:12.877Z,27.23
2022-12-04T05:06:45.709Z,26.08
2022-12-04T05:08:17.570Z,29.75
2022-12-04T05:09:50.337Z,26.05
2022-12-04T05:11:24.512Z,28.15
2022-12-04T05:12:56.345Z,27.58
2022-12-04T05:14:29.050Z,27.98
2022-12-04T05:16:03.924Z,26.13
2022-12-04T05:17:35.942Z,26.35
2022-12-04T05:19:26.120Z,25.75
2022-12-04T05:20:59.004Z,27.38
2022-12-04T05:22:32.565Z,25.95
2022-12-04T05:24:05.558Z,25.38
2022-12-04T05:25:38.276Z,28.77
2022-12-04T05:27:12.348Z,27.25
2022-12-04T05:28:45.093Z,29.33
2022-12-04T05:30:18.484Z,26.33
2022-12-04T05:31:51.258Z,27.88
2022-12-04T05:33:24.105Z,28.77
2022-12-04T05:34:56.799Z,28.10
2022-12-04T05:36:29.515Z,26.08
2022-12-04T05:38:02.252Z,28.15
2022-12-04T05:39:36.283Z,28.10
2022-12-04T05:41:09.368Z,27.98
2022-12-04T05:42:43.481Z,27.92
2022-12-04T05:44:15.246Z,27.00
2022-12-04T05:45:48.011Z,28.27
2022-12-04T05:47:21.136Z,28.83
2022-12-04T05:48:52.878Z,26.42
2022-12-04T05:50:25.594Z,28.30
2022-12-04T05:51:57.411Z,27.35
2022-12-04T05:53:30.133Z,30.25
2022-12-04T05:55:02.895Z,29.92
2022-12-04T05:56:34.687Z,29.65
2022-12-04T05:58:08.779Z,28.17
2022-12-04T05:59:41.526Z,29.23
2022-12-04T06:01:17.159Z,29.58
2022-12-04T06:02:49.983Z,32.17
2022-12-04T06:04:21.855Z,28.45
2022-12-04T06:05:54.550Z,28.58
2022-12-04T06:07:27.328Z,27.52
2022-12-04T06:09:01.159Z,27.52
2022-12-04T06:10:33.884Z,26.33
2022-12-04T06:12:06.894Z,25.92
2022-12-04T06:13:41.751Z,28.00
2022-12-04T06:15:14.458Z,28.50
2022-12-04T06:16:48.130Z,31.77
2022-12-04T06:18:21.016Z,28.98
2022-12-04T06:19:55.985Z,29.20
2022-12-04T06:21:31.540Z,28.45
2022-12-04T06:23:04.312Z,29.80
2022-12-04T06:24:37.034Z,31.17
2022-12-04T06:26:09.550Z,31.00
2022-12-04T06:27:43.677Z,28.23
2022-12-04T06:29:18.224Z,28.63
2022-12-04T06:30:50.930Z,26.58
2022-12-04T06:32:23.692Z,30.45
2022-12-04T06:33:58.001Z,29.10
2022-12-04T06:35:30.857Z,32.60
2022-12-04T06:37:03.600Z,29.92
2022-12-04T06:38:36.643Z,28.77
2022-12-04T06:40:10.522Z,29.38
2022-12-04T06:41:43.264Z,32.17
2022-12-04T06:43:15.991Z,30.92
2022-12-04T06:44:50.183Z,31.27
2022-12-04T06:46:24.782Z,28.98
2022-12-04T06:47:57.602Z,29.40
2022-12-04T06:49:29.368Z,31.60
2022-12-04T06:51:03.574Z,31.38
2022-12-04T06:52:36.316Z,29.65
2022-12-04T06:54:10.709Z,29.50
2022-12-04T06:55:48.611Z,33.30
2022-12-04T06:57:21.315Z,28.25
2022-12-04T06:58:56.338Z,30.63
2022-12-04T07:00:30.449Z,29.83
2022-12-04T07:02:03.298Z,29.33
2022-12-04T07:03:36.362Z,28.85
2022-12-04T07:05:09.518Z,30.42
2022-12-04T07:06:42.903Z,28.45
2022-12-04T07:08:16.080Z,30.00
2022-12-04T07:09:48.817Z,30.85
2022-12-04T07:11:22.260Z,30.27
2022-12-04T07:12:54.990Z,31.42
2022-12-04T07:14:27.828Z,32.22
2022-12-04T07:16:02.811Z,28.20
2022-12-04T07:17:35.578Z,27.90
2022-12-04T07:19:08.583Z,29.27
2022-12-04T07:20:41.758Z,28.48
2022-12-04T07:22:14.489Z,29.40
2022-12-04T07:23:49.744Z,30.98
2022-12-04T07:25:22.535Z,29.30
2022-12-04T07:26:55.326Z,27.95
2022-12-04T07:28:28.044Z,31.25
2022-12-04T07:30:00.786Z,28.45
2022-12-04T07:31:34.877Z,28.70
2022-12-04T07:33:07.679Z,26.90
2022-12-04T07:34:40.432Z,31.92
2022-12-04T07:36:15.031Z,26.67
2022-12-04T07:37:47.763Z,30.60
2022-12-04T07:39:20.499Z,29.45
2022-12-04T07:40:53.210Z,27.58
2022-12-04T07:42:25.963Z,30.90
2022-12-04T07:43:58.700Z,30.05
2022-12-04T07:45:31.468Z,31.20
2022-12-04T07:47:05.568Z,30.13
2022-12-04T07:48:38.372Z,27.17
2022-12-04T07:50:11.209Z,27.77
2022-12-04T07:51:43.952Z,30.10
2022-12-04T07:53:16.739Z,28.75
2022-12-04T07:54:49.543Z,29.10
2022-12-04T07:56:22.348Z,30.15
2022-12-04T07:57:55.074Z,29.98
2022-12-04T07:59:27.843Z,29.70
2022-12-04T08:01:06.183Z,27.88
2022-12-04T08:02:40.378Z,30.33
2022-12-04T08:04:13.240Z,29.50
2022-12-04T08:05:46.012Z,31.02
2022-12-04T08:07:19.243Z,33.40
2022-12-04T08:08:52.651Z,31.02
2022-12-04T08:10:25.383Z,29.67
2022-12-04T08:11:58.124Z,28.67
2022-12-04T08:13:30.835Z,28.95
2022-12-04T08:15:05.133Z,28.67
2022-12-04T08:16:37.927Z,28.58
2022-12-04T08:18:12.202Z,28.00
2022-12-04T08:19:44.970Z,28.08
2022-12-04T08:21:20.509Z,29.88
2022-12-04T08:22:53.311Z,33.40
2022-12-04T08:24:26.124Z,29.73
2022-12-04T08:25:59.177Z,28.00
2022-12-04T08:27:31.935Z,33.60
2022-12-04T08:29:05.968Z,35.50
2022-12-04T08:30:38.731Z,32.90
2022-12-04T08:32:11.518Z,38.10
2022-12-04T08:33:47.089Z,40.13
2022-12-04T08:35:19.808Z,36.15
2022-12-04T08:36:52.582Z,36.63
2022-12-04T08:38:25.354Z,32.53
2022-12-04T08:39:59.012Z,34.53
2022-12-04T08:41:31.865Z,28.55
2022-12-04T08:43:04.629Z,30.38
2022-12-04T08:44:37.351Z,29.77
2022-12-04T08:46:12.033Z,33.35
2022-12-04T08:47:47.995Z,31.88
2022-12-04T08:49:26.271Z,31.98
2022-12-04T08:50:59.362Z,31.67
2022-12-04T08:52:32.548Z,36.95
2022-12-04T08:54:07.325Z,32.65
2022-12-04T08:55:39.150Z,30.30
2022-12-04T08:57:11.896Z,29.42
2022-12-04T08:58:43.704Z,29.88
2022-12-04T09:00:17.055Z,30.85
2022-12-04T09:01:51.640Z,32.72
2022-12-04T09:03:30.563Z,30.88
2022-12-04T09:05:05.540Z,29.48
2022-12-04T09:06:38.288Z,32.50
2022-12-04T09:08:11.032Z,32.92
2022-12-04T09:09:48.261Z,30.25
2022-12-04T09:11:23.678Z,29.23
2022-12-04T09:12:56.411Z,29.77
2022-12-04T09:14:29.146Z,27.65
2022-12-04T09:16:04.910Z,30.27
2022-12-04T09:17:37.754Z,31.92
2022-12-04T09:19:10.478Z,27.83
2022-12-04T09:20:44.558Z,29.77
2022-12-04T09:22:17.282Z,29.58
2022-12-04T09:23:50.307Z,29.05
2022-12-04T09:25:23.043Z,30.50
2022-12-04T09:26:55.838Z,33.42
2022-12-04T09:28:28.691Z,32.40
2022-12-04T09:30:01.489Z,30.30
2022-12-04T09:31:34.872Z,27.88
2022-12-04T09:33:07.659Z,28.67
2022-12-04T09:34:40.392Z,29.50
2022-12-04T09:36:16.802Z,30.02
2022-12-04T09:37:49.526Z,28.88
2022-12-04T09:39:22.272Z,27.45
2022-12-04T09:41:06.106Z,28.30
2022-12-04T09:42:48.023Z,29.13
2022-12-04T09:44:24.398Z,27.33
2022-12-04T09:46:01.886Z,26.77
2022-12-04T09:47:37.247Z,25.42
2022-12-04T09:49:15.680Z,24.60
2022-12-04T09:50:51.023Z,25.85
2022-12-04T09:52:44.007Z,26.27
2022-12-04T09:54:19.112Z,28.63
2022-12-04T09:55:56.991Z,28.23
2022-12-04T09:57:37.714Z,26.60
2022-12-04T09:59:16.248Z,27.58
2022-12-04T10:00:51.360Z,28.23
2022-12-04T10:02:37.528Z,27.85
2022-12-04T10:04:11.312Z,27.38
2022-12-04T10:05:53.552Z,30.95
2022-12-04T10:07:33.190Z,32.42
2022-12-04T10:09:13.261Z,30.45
2022-12-04T10:10:56.530Z,33.40
2022-12-04T10:12:37.831Z,37.20
2022-12-04T10:14:22.879Z,32.78
2022-12-04T10:16:04.504Z,37.88
2022-12-04T10:17:56.967Z,27.40
2022-12-04T10:19:38.727Z,36.00
2022-12-04T10:21:31.153Z,27.52
2022-12-04T10:23:16.380Z,30.17
2022-12-04T10:24:53.025Z,28.17
2022-12-04T10:26:30.758Z,32.15
2022-12-04T10:28:21.664Z,39.03
2022-12-04T10:29:59.851Z,33.85
2022-12-04T10:31:34.975Z,35.70
2022-12-04T10:33:20.686Z,34.25
2022-12-04T10:34:55.627Z,34.58
2022-12-04T10:36:32.254Z,32.08
2022-12-04T10:38:12.224Z,32.03
2022-12-04T10:39:50.567Z,35.03
2022-12-04T10:41:27.423Z,37.92
2022-12-04T10:43:06.775Z,42.92
2022-12-04T10:44:40.122Z,54.50
2022-12-04T10:46:16.479Z,73.13
2022-12-04T10:47:51.622Z,41.05
2022-12-04T10:49:27.858Z,31.95
2022-12-04T10:51:00.601Z,30.17
2022-12-04T10:52:33.341Z,30.33
2022-12-04T10:54:15.815Z,31.00
2022-12-04T10:55:48.826Z,31.13
2022-12-04T10:57:21.598Z,31.83
2022-12-04T10:58:59.380Z,34.92
2022-12-04T11:00:34.260Z,36.83
2022-12-04T11:02:17.990Z,34.58
2022-12-04T11:03:58.468Z,36.00
2022-12-04T11:05:34.129Z,30.70
2022-12-04T11:07:10.348Z,38.75
2022-12-04T11:08:44.793Z,39.60
2022-12-04T11:10:25.073Z,32.88
2022-12-04T11:12:07.688Z,33.42
2022-12-04T11:13:41.888Z,30.30
2022-12-04T11:15:16.248Z,34.67
2022-12-04T11:16:51.328Z,31.58
2022-12-04T11:18:26.741Z,37.58
2022-12-04T11:20:05.035Z,38.67
2022-12-04T11:21:39.690Z,43.65
2022-12-04T11:23:17.511Z,50.50
2022-12-04T11:24:54.067Z,32.03
2022-12-04T11:26:34.503Z,31.50
2022-12-04T11:28:07.312Z,35.60
2022-12-04T11:29:44.732Z,33.13
2022-12-04T11:31:20.355Z,32.80
2022-12-04T11:32:54.651Z,34.00
2022-12-04T11:34:35.513Z,34.85
2022-12-04T11:36:20.423Z,33.00
2022-12-04T11:37:56.103Z,30.80
2022-12-04T11:39:33.635Z,29.60
2022-12-04T11:41:06.665Z,31.05
2022-12-04T11:42:40.734Z,32.17
2022-12-04T11:44:26.353Z,31.40
2022-12-04T11:46:00.784Z,30.98
2022-12-04T11:47:34.539Z,30.02
2022-12-04T11:49:07.263Z,32.70
2022-12-04T11:50:48.589Z,32.13
2022-12-04T11:52:31.567Z,31.55
2022-12-04T11:54:12.090Z,35.25
2022-12-04T11:56:02.790Z,32.35
2022-12-04T11:57:43.627Z,32.10
2022-12-04T11:59:35.331Z,34.80
2022-12-04T12:01:19.043Z,32.15
2022-12-04T12:03:11.387Z,31.08
2022-12-04T12:05:01.486Z,30.65
2022-12-04T12:06:37.427Z,30.83
2022-12-04T12:08:18.912Z,29.63
2022-12-04T12:10:00.389Z,28.10
2022-12-04T12:11:38.436Z,27.77
2022-12-04T12:13:23.454Z,27.60
2022-12-04T12:15:09.497Z,30.65
2022-12-04T12:16:57.215Z,26.38
2022-12-04T12:18:46.275Z,30.13
2022-12-04T12:20:25.181Z,31.52
2022-12-04T12:22:05.684Z,33.00
2022-12-04T12:23:55.931Z,31.05
2022-12-04T12:25:33.866Z,34.20
2022-12-04T12:27:28.837Z,30.42
2022-12-04T12:29:13.528Z,31.98
2022-12-04T12:31:05.828Z,32.92
2022-12-04T12:32:53.824Z,32.75
2022-12-04T12:34:36.672Z,31.45
2022-12-04T12:36:12.572Z,33.42
2022-12-04T12:37:48.916Z,32.72
2022-12-04T12:39:25.813Z,35.40
2022-12-04T12:41:03.245Z,34.55
2022-12-04T12:42:41.220Z,34.47
2022-12-04T12:44:20.792Z,38.33
2022-12-04T12:45:59.264Z,35.47
2022-12-04T12:47:38.769Z,44.70
2022-12-04T12:49:17.589Z,48.80
2022-12-04T12:51:14.946Z,65.30
2022-12-04T12:52:54.915Z,43.10
2022-12-04T12:54:37.703Z,49.22
2022-12-04T12:56:13.254Z,47.42
2022-12-04T12:57:50.710Z,46.33
2022-12-04T12:59:28.535Z,51.78
2022-12-04T13:01:07.281Z,49.50
2022-12-04T13:02:45.737Z,51.58
2022-12-04T13:04:24.153Z,44.30
2022-12-04T13:06:01.941Z,37.45
2022-12-04T13:07:46.465Z,41.30
2022-12-04T13:09:25.369Z,39.47
2022-12-04T13:11:04.743Z,46.40
2022-12-04T13:12:46.384Z,37.53
2022-12-04T13:14:19.127Z,39.13
2022-12-04T13:15:58.466Z,39.22
2022-12-04T13:17:34.434Z,42.65
2022-12-04T13:19:13.308Z,44.25
2022-12-04T13:20:53.322Z,36.60
2022-12-04T13:22:32.629Z,36.30
2022-12-04T13:24:38.231Z,34.10
2022-12-04T13:26:22.283Z,38.92
2022-12-04T13:28:06.462Z,38.42
2022-12-04T13:29:50.325Z,36.28
2022-12-04T13:31:33.224Z,48.10
2022-12-04T13:33:25.383Z,44.33
2022-12-04T13:35:05.081Z,47.70
2022-12-04T13:36:57.066Z,41.13
2022-12-04T13:38:41.478Z,46.88
2022-12-04T13:40:39.610Z,46.42
2022-12-04T13:42:23.064Z,40.25
2022-12-04T13:43:57.460Z,39.33
2022-12-04T13:45:34.591Z,40.75
2022-12-04T13:47:13.325Z,36.00
2022-12-04T13:48:46.166Z,35.25
2022-12-04T13:50:31.471Z,38.45
2022-12-04T13:52:07.123Z,36.50
2022-12-04T13:53:40.358Z,31.70
2022-12-04T13:55:29.140Z,33.80
2022-12-04T13:57:21.928Z,33.45
2022-12-04T13:59:01.873Z,32.65
2022-12-04T14:00:36.403Z,37.10
2022-12-04T14:02:29.756Z,32.03
2022-12-04T14:04:03.191Z,36.92
2022-12-04T14:05:43.628Z,35.83
2022-12-04T14:07:27.496Z,33.67
2022-12-04T14:09:03.440Z,39.33
2022-12-04T14:10:39.375Z,34.67
2022-12-04T14:12:15.438Z,33.30
2022-12-04T14:13:51.597Z,34.97
2022-12-04T14:15:26.652Z,34.88
2022-12-04T14:17:01.161Z,30.70
2022-12-04T14:18:35.423Z,34.97
2022-12-04T14:20:24.492Z,34.53
2022-12-04T14:21:57.343Z,34.13
2022-12-04T14:23:37.643Z,34.65
2022-12-04T14:25:26.028Z,34.63
2022-12-04T14:27:14.577Z,34.40
2022-12-04T14:28:48.771Z,33.92
2022-12-04T14:30:24.879Z,33.25
2022-12-04T14:32:01.243Z,35.65
2022-12-04T14:33:40.692Z,34.20
2022-12-04T14:35:15.250Z,41.85
2022-12-04T14:36:49.443Z,34.90
2022-12-04T14:38:23.854Z,34.03
2022-12-04T14:39:58.462Z,30.27
2022-12-04T14:41:31.344Z,35.05
2022-12-04T14:43:05.528Z,33.13
2022-12-04T14:44:39.227Z,29.38
2022-12-04T14:46:18.817Z,30.08
2022-12-04T14:48:06.739Z,29.35
2022-12-04T14:49:54.249Z,28.05
2022-12-04T14:51:33.963Z,26.55
2022-12-04T14:53:16.067Z,31.40
2022-12-04T14:54:57.611Z,29.25
2022-12-04T14:56:53.413Z,27.20
2022-12-04T14:58:34.470Z,29.98
2022-12-04T15:00:16.846Z,28.30
2022-12-04T15:01:51.634Z,29.00
2022-12-04T15:03:25.383Z,25.92
2022-12-04T15:05:00.048Z,28.85
2022-12-04T15:06:34.632Z,27.30
2022-12-04T15:08:07.669Z,28.25
2022-12-04T15:10:08.216Z,27.08
2022-12-04T15:12:04.099Z,25.70
2022-12-04T15:13:38.747Z,31.33
2022-12-04T15:15:19.298Z,29.85
2022-12-04T15:17:02.575Z,26.50
2022-12-04T15:18:39.418Z,31.38
2022-12-04T15:20:18.024Z,27.08
2022-12-04T15:21:50.795Z,27.70
2022-12-04T15:23:28.742Z,27.10
2022-12-04T15:25:01.821Z,26.17
2022-12-04T15:26:34.764Z,27.65
2022-12-04T15:28:12.590Z,30.30
2022-12-04T15:29:48.255Z,28.48
2022-12-04T15:31:24.164Z,24.98
2022-12-04T15:32:57.478Z,28.15
2022-12-04T15:34:37.507Z,28.27
2022-12-04T15:36:18.890Z,28.45
2022-12-04T15:37:51.987Z,28.25
2022-12-04T15:39:27.884Z,27.88
2022-12-04T15:41:02.089Z,29.15
2022-12-04T15:42:34.911Z,28.85
2022-12-04T15:44:24.266Z,32.03
2022-12-04T15:45:58.200Z,29.75
2022-12-04T15:47:33.736Z,28.63
2022-12-04T15:49:18.366Z,31.42
2022-12-04T15:50:57.732Z,35.30
2022-12-04T15:52:31.808Z,29.48
2022-12-04T15:54:04.992Z,32.22
2022-12-04T15:55:41.080Z,32.72
2022-12-04T15:57:26.219Z,32.85
2022-12-04T15:59:01.728Z,32.33
2022-12-04T16:00:38.373Z,32.30
2022-12-04T16:02:25.838Z,34.25
2022-12-04T16:03:58.668Z,30.48
2022-12-04T16:05:35.363Z,34.20
2022-12-04T16:07:22.295Z,35.22
2022-12-04T16:08:58.079Z,31.50
2022-12-04T16:10:33.795Z,32.67
2022-12-04T16:12:19.529Z,33.10
2022-12-04T16:14:15.783Z,31.23
2022-12-04T16:15:48.627Z,33.92
2022-12-04T16:17:21.792Z,34.05
2022-12-04T16:18:54.654Z,33.97
2022-12-04T16:20:27.420Z,36.95
2022-12-04T16:22:00.631Z,34.55
2022-12-04T16:23:33.670Z,37.20
2022-12-04T16:25:08.641Z,34.20
2022-12-04T16:26:41.971Z,41.05
2022-12-04T16:28:14.758Z,36.58
2022-12-04T16:29:47.846Z,36.95
2022-12-04T16:31:23.765Z,36.40
2022-12-04T16:32:56.590Z,36.65
2022-12-04T16:34:29.291Z,37.35
2022-12-04T16:36:02.076Z,39.45
2022-12-04T16:37:34.811Z,36.78
2022-12-04T16:39:07.539Z,38.60
2022-12-04T16:40:41.580Z,35.58
2022-12-04T16:42:17.122Z,36.70
2022-12-04T16:43:56.188Z,35.90
2022-12-04T16:45:33.335Z,35.65
2022-12-04T16:47:06.740Z,36.15
2022-12-04T16:48:39.528Z,35.70
2022-12-04T16:50:12.338Z,36.17
2022-12-04T16:51:49.467Z,36.55
2022-12-04T16:53:23.696Z,35.67
2022-12-04T16:55:00.478Z,35.15
2022-12-04T16:56:37.243Z,38.00
2022-12-04T16:58:09.975Z,35.55
2022-12-04T16:59:42.692Z,33.08
2022-12-04T17:01:22.634Z,34.80
2022-12-04T17:02:55.790Z,35.15
2022-12-04T17:04:28.823Z,36.35
2022-12-04T17:06:02.547Z,37.60
2022-12-04T17:07:35.315Z,42.22
2022-12-04T17:09:08.459Z,38.28
2022-12-04T17:10:41.188Z,42.38
2022-12-04T17:12:15.265Z,37.75
2022-12-04T17:13:47.982Z,38.00
2022-12-04T17:15:20.872Z,37.90
2022-12-04T17:16:54.888Z,37.13
2022-12-04T17:18:27.702Z,37.47
2022-12-04T17:20:00.438Z,36.35
2022-12-04T17:21:34.153Z,38.58
2022-12-04T17:23:06.902Z,36.00
2022-12-04T17:24:47.169Z,33.17
2022-12-04T17:26:21.956Z,37.53
2022-12-04T17:27:56.019Z,35.55
2022-12-04T17:29:28.732Z,36.03
2022-12-04T17:31:02.426Z,34.85
2022-12-04T17:32:35.860Z,36.78
2022-12-04T17:34:08.559Z,31.30
2022-12-04T17:35:42.319Z,37.40
2022-12-04T17:37:15.128Z,35.63
2022-12-04T17:38:47.931Z,39.50
2022-12-04T17:40:20.823Z,37.22
2022-12-04T17:41:53.521Z,33.28
2022-12-04T17:43:29.414Z,37.13
2022-12-04T17:45:02.165Z,37.28
2022-12-04T17:46:34.974Z,36.13
2022-12-04T17:48:07.952Z,31.80
2022-12-04T17:49:40.654Z,33.88
2022-12-04T17:51:15.034Z,36.05
2022-12-04T17:52:48.216Z,34.17
2022-12-04T17:54:20.939Z,36.00
2022-12-04T17:55:53.657Z,33.00
2022-12-04T17:57:26.396Z,37.35
2022-12-04T17:59:00.475Z,36.63
2022-12-04T18:00:33.241Z,37.53
2022-12-04T18:02:05.995Z,38.90
2022-12-04T18:03:39.582Z,37.58
2022-12-04T18:05:12.298Z,39.13
2022-12-04T18:06:46.001Z,40.58
2022-12-04T18:08:18.824Z,45.47
2022-12-04T18:09:51.613Z,51.90
2022-12-04T18:11:27.982Z,56.10
2022-12-04T18:13:00.689Z,53.72
2022-12-04T18:14:35.464Z,46.13
2022-12-04T18:16:10.997Z,48.22
2022-12-04T18:17:43.753Z,46.63
2022-12-04T18:19:16.536Z,53.22
2022-12-04T18:20:59.941Z,54.78
2022-12-04T18:22:32.663Z,43.70
2022-12-04T18:24:06.948Z,43.72
2022-12-04T18:25:39.655Z,52.33
2022-12-04T18:27:12.372Z,48.28
2022-12-04T18:28:46.362Z,45.95
2022-12-04T18:30:20.646Z,40.78
2022-12-04T18:31:53.481Z,40.92
2022-12-04T18:33:26.268Z,41.65
2022-12-04T18:34:58.994Z,49.95
2022-12-04T18:36:33.600Z,46.22
2022-12-04T18:38:06.367Z,36.25
2022-12-04T18:39:39.103Z,42.28
2022-12-04T18:41:14.343Z,51.80
2022-12-04T18:42:47.083Z,38.10
2022-12-04T18:44:19.797Z,38.20
2022-12-04T18:46:06.850Z,35.58
2022-12-04T18:47:40.245Z,35.67
2022-12-04T18:49:13.061Z,32.17
2022-12-04T18:50:45.780Z,34.35
2022-12-04T18:52:18.544Z,33.78
2022-12-04T18:53:52.754Z,36.90
2022-12-04T18:55:25.482Z,34.90
2022-12-04T18:56:58.202Z,34.25
2022-12-04T18:58:30.942Z,35.63
2022-12-04T19:00:03.759Z,36.83
2022-12-04T19:01:38.876Z,39.10
2022-12-04T19:03:11.869Z,36.67
2022-12-04T19:04:44.831Z,36.30
2022-12-04T19:06:17.606Z,38.67
2022-12-04T19:07:50.883Z,36.97
2022-12-04T19:09:47.125Z,37.05
2022-12-04T19:11:18.246Z,39.40
2022-12-04T19:12:52.470Z,36.20
2022-12-04T19:14:25.191Z,37.92
2022-12-04T19:15:57.931Z,37.35
2022-12-04T19:17:32.091Z,38.33
2022-12-04T19:19:05.267Z,42.90
2022-12-04T19:20:40.462Z,38.17
2022-12-04T19:22:13.456Z,42.17
2022-12-04T19:23:50.873Z,37.75
2022-12-04T19:25:23.616Z,39.58
2022-12-04T19:26:56.348Z,42.85
2022-12-04T19:28:29.134Z,41.22
2022-12-04T19:30:01.855Z,41.35
2022-12-04T19:31:36.193Z,41.38
2022-12-04T19:33:10.334Z,41.90
2022-12-04T19:34:43.648Z,40.08
2022-12-04T19:36:16.911Z,42.42
2022-12-04T19:37:52.981Z,39.88
2022-12-04T19:39:25.860Z,40.25
2022-12-04T19:41:10.290Z,43.17
2022-12-04T19:42:43.018Z,46.47
2022-12-04T19:44:47.240Z,41.22
2022-12-04T19:46:10.549Z,41.25
2022-12-04T19:47:43.295Z,43.05
2022-12-04T19:49:17.468Z,44.05
2022-12-04T19:50:50.424Z,39.72
2022-12-04T19:52:23.150Z,43.20
2022-12-04T19:53:56.524Z,39.67
2022-12-04T19:55:29.231Z,41.78
2022-12-04T19:57:02.031Z,43.58
2022-12-04T19:58:35.711Z,42.42
2022-12-04T20:00:09.972Z,43.38
2022-12-04T20:01:42.761Z,42.88
2022-12-04T20:03:15.522Z,43.53
2022-12-04T20:04:49.703Z,36.63
2022-12-04T20:06:24.418Z,40.08
2022-12-04T20:09:29.928Z,41.72
2022-12-04T20:11:03.682Z,39.42
2022-12-04T20:12:36.402Z,39.17
2022-12-04T20:14:10.010Z,40.40
2022-12-04T20:15:43.096Z,43.20
2022-12-04T20:17:15.839Z,43.90
2022-12-04T20:18:48.757Z,39.55
2022-12-04T20:20:22.958Z,43.75
2022-12-04T20:21:59.280Z,43.40
2022-12-04T20:23:32.394Z,41.10
2022-12-04T20:25:05.681Z,41.47
2022-12-04T20:26:40.228Z,40.13
2022-12-04T20:28:14.665Z,40.00
2022-12-04T20:29:47.490Z,36.95
2022-12-04T20:31:22.652Z,39.00
2022-12-04T20:32:56.221Z,38.33
2022-12-04T20:34:28.973Z,41.55
2022-12-04T20:36:03.036Z,42.88
2022-12-04T20:37:36.311Z,39.20
2022-12-04T20:39:10.767Z,41.30
2022-12-04T20:40:43.502Z,40.50
2022-12-04T20:42:16.587Z,38.63
2022-12-04T20:43:49.672Z,41.50